»·PEaware :: NKS720 KLAS-KABQ

NKS720 :: KLAS-KABQ

FLIGHT INFORMATION

Flight Status: Arrived
Operator:
Spirit Airlines
More flights by this operator :: More flights under this callsign
Pilot: Jac C. (16067)
Aircraft: AIRBUS A320
(A320)
More flights by this aircraft type
Origin: KLAS McCarran Intl
United States
Destination: KABQ Albuquerque Intl Sunport
United States
More flights between these airports :: More routes between these airports
Route: COWBY8 GUP LOWBO3
File this flight plan on PilotEdge
Remarks:
Altitude:
(Current/Filed)
37,000ft
Speed:
(Current/Filed)
439kts
Departed: 27-Jan-18 08:40 PM
Arrived: 27-Jan-18 09:48 PM
Distance/Time
Traveled:
421nm/1:08
Distance/Time
To Go:
Arrived

Flight Plot

Page will automatically refresh every two minutes.

Flight plan parsing failed; only flown route is shown


Map Options




Map Legend


Flown Route
Filed Route
Departure Airport
Arrival Airport
Navaid (VOR, NDB)
Fix

Horizontal Profiles

Position Reports

Time Latitude Longitude Heading Altitude Ground
Speed
27-Jan-18 20:14 36.081224 -115.139721 129 2072ft 0kts
27-Jan-18 20:15 36.081224 -115.139721 129 2072ft 0kts
27-Jan-18 20:16 36.081224 -115.139721 129 2072ft 0kts
27-Jan-18 20:17 36.081224 -115.139721 129 2072ft 0kts
27-Jan-18 20:18 36.081224 -115.139721 129 2072ft 0kts
27-Jan-18 20:19 36.081224 -115.139721 129 2072ft 0kts
27-Jan-18 20:20 36.081224 -115.139721 129 2072ft 0kts
27-Jan-18 20:21 36.081224 -115.139721 129 2072ft 0kts
27-Jan-18 20:22 36.081224 -115.139721 129 2072ft 0kts
27-Jan-18 20:23 36.081224 -115.139721 129 2072ft 0kts
27-Jan-18 20:24 36.081224 -115.139721 129 2072ft 0kts
27-Jan-18 20:25 36.081224 -115.139721 129 2072ft 0kts
27-Jan-18 20:26 36.081224 -115.139721 129 2072ft 0kts
27-Jan-18 20:27 36.081224 -115.139721 129 2072ft 0kts
27-Jan-18 20:28 36.081224 -115.139721 129 2072ft 0kts
27-Jan-18 20:29 36.081224 -115.139721 129 2072ft 0kts
27-Jan-18 20:30 36.081224 -115.139721 129 2072ft 0kts
27-Jan-18 20:31 36.081225 -115.139721 129 2072ft 0kts
27-Jan-18 20:32 36.081225 -115.139721 129 2072ft 0kts
27-Jan-18 20:33 36.081329 -115.139876 138 2072ft 2kts
27-Jan-18 20:34 36.081877 -115.139873 222 2071ft 1kts
27-Jan-18 20:35 36.081936 -115.139794 227 2071ft 0kts
27-Jan-18 20:36 36.081936 -115.139794 227 2071ft 0kts
27-Jan-18 20:37 36.081769 -115.140008 223 2072ft 4kts
27-Jan-18 20:38 36.080950 -115.140752 213 2075ft 0kts
27-Jan-18 20:39 36.079832 -115.141602 184 2082ft 10kts
27-Jan-18 20:40 36.078261 -115.138951 89 2076ft 12kts
27-Jan-18 20:41 36.078267 -115.134574 90 2064ft 13kts
27-Jan-18 20:42 36.078263 -115.129920 89 2049ft 15kts
27-Jan-18 20:43 36.078277 -115.124403 89 2038ft 15kts
27-Jan-18 20:44 36.078079 -115.122376 127 2036ft 2kts
27-Jan-18 20:45 36.076835 -115.121268 177 2038ft 9kts
27-Jan-18 20:46 36.076428 -115.129041 269 2051ft 93kts
27-Jan-18 20:47 36.077157 -115.183605 268 3408ft 198kts
27-Jan-18 20:48 36.056167 -115.258973 205 5496ft 268kts
27-Jan-18 20:49 35.985656 -115.294214 198 6992ft 278kts
27-Jan-18 20:50 35.910542 -115.277662 165 9608ft 283kts
27-Jan-18 20:51 35.853650 -115.208967 105 11304ft 350kts
27-Jan-18 20:52 35.825446 -115.090181 104 13815ft 381kts
27-Jan-18 20:53 35.832006 -114.958858 79 16753ft 391kts
27-Jan-18 20:54 35.844273 -114.822584 80 19027ft 412kts
27-Jan-18 20:55 35.857031 -114.679996 81 21304ft 427kts
27-Jan-18 20:56 35.870040 -114.532542 81 23370ft 442kts
27-Jan-18 20:57 35.883319 -114.379773 81 25240ft 455kts
27-Jan-18 20:58 35.896721 -114.223156 82 26879ft 467kts
27-Jan-18 20:59 35.910265 -114.062274 81 28504ft 474kts
27-Jan-18 21:00 35.921507 -113.903087 92 29710ft 488kts
27-Jan-18 21:01 35.897708 -113.738336 99 31326ft 486kts
27-Jan-18 21:02 35.873450 -113.584208 99 32692ft 484kts
27-Jan-18 21:03 35.847688 -113.422456 99 33959ft 482kts
27-Jan-18 21:04 35.821867 -113.261665 100 35023ft 480kts
27-Jan-18 21:05 35.795898 -113.101494 100 35943ft 479kts
27-Jan-18 21:06 35.769702 -112.941360 100 36694ft 478kts
27-Jan-18 21:07 35.743231 -112.780954 100 37344ft 474kts
27-Jan-18 21:08 35.716656 -112.621273 98 37403ft 484kts
27-Jan-18 21:09 35.689149 -112.457452 98 37408ft 493kts
27-Jan-18 21:10 35.661362 -112.293306 99 37407ft 492kts
27-Jan-18 21:11 35.633244 -112.128775 99 37391ft 483kts
27-Jan-18 21:12 35.605920 -111.970103 99 37401ft 480kts
27-Jan-18 21:13 35.590812 -111.808642 87 37388ft 471kts
27-Jan-18 21:14 35.586210 -111.647616 88 37398ft 477kts
27-Jan-18 21:15 35.581566 -111.486981 88 37395ft 475kts
27-Jan-18 21:16 35.576751 -111.327661 88 37396ft 474kts
27-Jan-18 21:17 35.572418 -111.170483 88 37430ft 474kts
27-Jan-18 21:18 35.567175 -111.009105 88 37425ft 475kts
27-Jan-18 21:19 35.561638 -110.847539 88 37431ft 471kts
27-Jan-18 21:20 35.555805 -110.685665 88 37431ft 474kts
27-Jan-18 21:21 35.549807 -110.525033 86 37431ft 476kts
27-Jan-18 21:22 35.543530 -110.361243 86 37433ft 481kts
27-Jan-18 21:23 35.537040 -110.198318 86 37430ft 482kts
27-Jan-18 21:24 35.530275 -110.034271 86 37431ft 480kts
27-Jan-18 21:25 35.523320 -109.870860 86 37432ft 480kts
27-Jan-18 21:26 35.516141 -109.707429 86 37433ft 480kts
27-Jan-18 21:27 35.509362 -109.548425 86 37442ft 477kts
27-Jan-18 21:28 35.502202 -109.386944 87 37439ft 482kts
27-Jan-18 21:29 35.494112 -109.223418 87 37431ft 480kts
27-Jan-18 21:30 35.485794 -109.059820 87 37430ft 480kts
27-Jan-18 21:31 35.477083 -108.893436 86 35046ft 481kts
27-Jan-18 21:32 35.479129 -108.733142 80 33245ft 469kts
27-Jan-18 21:33 35.482838 -108.571464 82 31802ft 468kts
27-Jan-18 21:34 35.486151 -108.410920 81 30366ft 477kts
27-Jan-18 21:35 35.480153 -108.250036 88 28935ft 483kts
27-Jan-18 21:36 35.469815 -108.090999 88 27438ft 452kts
27-Jan-18 21:37 35.460108 -107.944729 88 25935ft 416kts
27-Jan-18 21:38 35.450672 -107.804526 88 24466ft 408kts
27-Jan-18 21:39 35.442218 -107.667941 89 22777ft 393kts
27-Jan-18 21:40 35.433849 -107.535165 89 20668ft 385kts
27-Jan-18 21:41 35.425674 -107.407536 90 18505ft 370kts
27-Jan-18 21:42 35.388969 -107.297305 120 16379ft 347kts
27-Jan-18 21:43 35.338739 -107.198717 122 14430ft 340kts
27-Jan-18 21:44 35.291965 -107.107620 126 12784ft 298kts
27-Jan-18 21:45 35.234843 -107.038340 137 11330ft 291kts
27-Jan-18 21:46 35.205798 -106.955961 88 9916ft 287kts
27-Jan-18 21:47 35.149728 -106.903228 170 8931ft 274kts
27-Jan-18 21:48 35.076642 -106.886333 170 8598ft 270kts
27-Jan-18 21:49 35.030367 -106.837805 85 8799ft 224kts
27-Jan-18 21:50 35.038970 -106.766430 82 8262ft 189kts
27-Jan-18 21:51 35.044103 -106.712936 85 6965ft 154kts
27-Jan-18 21:52 35.044650 -106.662962 86 5845ft 140kts
27-Jan-18 21:53 35.044323 -106.612799 87 5337ft 146kts
27-Jan-18 21:54 35.044127 -106.585115 90 5335ft 6kts
27-Jan-18 21:55 35.045530 -106.582825 337 5342ft 5kts
27-Jan-18 21:56 35.045789 -106.587466 269 5335ft 23kts
27-Jan-18 21:57 35.045838 -106.592654 271 5330ft 6kts
27-Jan-18 21:58 35.045859 -106.597736 269 5326ft 14kts
27-Jan-18 21:59 35.045765 -106.602400 270 5323ft 16kts
27-Jan-18 22:00 35.045813 -106.608782 270 5321ft 15kts
27-Jan-18 22:01 35.045560 -106.614198 281 5317ft 13kts
27-Jan-18 22:02 35.046933 -106.616253 329 5314ft 0kts

Navigation Log

Ident Type
Flight plan parsing failed, navigation log unavailable